Time;durP1;ratioP1;P1;durP2;ratioP2;P2;SDS_P1;SDS_P2;PMS_P1;PMS_P2;Temp;Humidity;BMP_temperature;BMP_pressure;BME280_temperature;BME280_humidity;BME280_pressure;Samples;Min_cycle;Max_cycle;Signal;HPM_P1;HPM_P2
2022/05/26 00:01:04;;;;;;;5.63;2.57;;;;;;;;;;5112701;28;20975;-69
2022/05/26 00:03:33;;;;;;;3.33;2.93;;;;;;;;;;5112702;28;20819;-69
2022/05/26 00:06:00;;;;;;;3.73;3.30;;;;;;;;;;5112712;28;20494;-69
2022/05/26 00:08:27;;;;;;;3.57;3.10;;;;;;;;;;5115890;28;20449;-69
2022/05/26 00:10:55;;;;;;;2.83;2.57;;;;;;;;;;5116368;28;20481;-69
2022/05/26 00:13:22;;;;;;;4.30;2.60;;;;;;;;;;5116260;28;20488;-69
2022/05/26 00:15:49;;;;;;;2.50;2.10;;;;;;;;;;5116161;28;20965;-69
2022/05/26 00:18:17;;;;;;;3.43;3.13;;;;;;;;;;5116094;28;20458;-69
2022/05/26 00:20:45;;;;;;;2.57;2.37;;;;;;;;;;5116184;28;20844;-69
2022/05/26 00:23:13;;;;;;;3.60;2.67;;;;;;;;;;5116021;28;20446;-69
2022/05/26 00:25:40;;;;;;;3.63;3.27;;;;;;;;;;5115952;28;20969;-69
2022/05/26 00:28:07;;;;;;;3.03;2.73;;;;;;;;;;5115996;28;20811;-69
2022/05/26 00:30:37;;;;;;;3.10;2.80;;;;;;;;;;5116084;28;20481;-69
2022/05/26 00:33:05;;;;;;;2.53;2.30;;;;;;;;;;5115812;28;20513;-69
2022/05/26 00:35:34;;;;;;;4.70;3.20;;;;;;;;;;5115836;28;20506;-69
2022/05/26 00:38:03;;;;;;;3.10;2.40;;;;;;;;;;5115822;28;20943;-69
2022/05/26 00:40:30;;;;;;;2.53;2.33;;;;;;;;;;5115834;28;20469;-69
2022/05/26 00:42:57;;;;;;;3.00;2.67;;;;;;;;;;5115633;28;20465;-69
2022/05/26 00:45:24;;;;;;;3.03;2.73;;;;;;;;;;5115493;28;20454;-69
2022/05/26 00:47:52;;;;;;;4.20;1.97;;;;;;;;;;5115840;28;20492;-69
2022/05/26 00:50:21;;;;;;;2.93;2.10;;;;;;;;;;5115648;28;20833;-69
2022/05/26 00:52:50;;;;;;;2.80;2.40;;;;;;;;;;5115755;27;20833;-69
2022/05/26 00:55:21;;;;;;;2.83;2.40;;;;;;;;;;5115273;28;20446;-69
2022/05/26 00:57:51;;;;;;;2.40;2.20;;;;;;;;;;5115605;28;20923;-69
2022/05/26 01:00:21;;;;;;;8.80;2.90;;;;;;;;;;5115254;28;20983;-69
2022/05/26 01:02:50;;;;;;;4.60;2.60;;;;;;;;;;5115448;28;20449;-69
2022/05/26 01:05:19;;;;;;;3.53;2.20;;;;;;;;;;5115065;28;20457;-69
2022/05/26 01:07:46;;;;;;;4.63;2.43;;;;;;;;;;5115308;28;20453;-69
2022/05/26 01:10:14;;;;;;;2.67;2.20;;;;;;;;;;5115007;28;20469;-69
2022/05/26 01:12:42;;;;;;;4.03;2.10;;;;;;;;;;5115076;28;20478;-69
2022/05/26 01:15:11;;;;;;;2.90;2.03;;;;;;;;;;5114817;28;20460;-69
2022/05/26 01:17:42;;;;;;;3.00;2.73;;;;;;;;;;5115126;28;20459;-69
2022/05/26 01:20:23;;;;;;;2.90;2.43;;;;;;;;;;5114932;28;20477;-69
2022/05/26 01:23:07;;;;;;;4.90;2.20;;;;;;;;;;5114975;28;20442;-69
2022/05/26 01:25:41;;;;;;;5.60;2.47;;;;;;;;;;5114362;28;20787;-69
2022/05/26 01:28:16;;;;;;;2.80;2.30;;;;;;;;;;5114804;28;20450;-69
2022/05/26 01:30:45;;;;;;;2.33;2.13;;;;;;;;;;5114783;28;20881;-69
2022/05/26 01:33:26;;;;;;;2.77;2.50;;;;;;;;;;5114630;28;20478;-69
2022/05/26 01:35:58;;;;;;;2.90;2.57;;;;;;;;;;5114749;28;20811;-69
2022/05/26 01:38:30;;;;;;;3.87;3.20;;;;;;;;;;5114764;28;20453;-69
2022/05/26 01:41:00;;;;;;;3.00;2.70;;;;;;;;;;5114672;28;21001;-69
2022/05/26 01:43:30;;;;;;;5.17;3.67;;;;;;;;;;5114391;28;20449;-69
2022/05/26 01:46:01;;;;;;;3.83;3.37;;;;;;;;;;5114525;28;20923;-69
2022/05/26 01:48:30;;;;;;;2.63;2.37;;;;;;;;;;5114349;28;20450;-69
2022/05/26 01:51:00;;;;;;;9.40;3.30;;;;;;;;;;5114334;28;20469;-69
2022/05/26 01:53:29;;;;;;;4.80;3.70;;;;;;;;;;5114209;28;20481;-69
2022/05/26 01:56:00;;;;;;;4.97;4.23;;;;;;;;;;5114349;28;20511;-69
2022/05/26 01:58:32;;;;;;;9.60;5.13;;;;;;;;;;5114219;28;20457;-69
2022/05/26 02:01:02;;;;;;;3.47;3.17;;;;;;;;;;5114046;28;20473;-69
2022/05/26 02:03:32;;;;;;;4.37;3.90;;;;;;;;;;5114027;28;20446;-69
2022/05/26 02:06:04;;;;;;;3.77;3.37;;;;;;;;;;5114305;28;20973;-69
2022/05/26 02:08:34;;;;;;;4.40;3.53;;;;;;;;;;5114145;28;20452;-69
2022/05/26 02:11:03;;;;;;;4.10;3.30;;;;;;;;;;5113862;28;20470;-69
2022/05/26 02:13:31;;;;;;;7.80;3.73;;;;;;;;;;5113800;28;20489;-69
2022/05/26 02:16:02;;;;;;;3.93;3.30;;;;;;;;;;5114078;28;20449;-69
2022/05/26 02:18:32;;;;;;;9.00;4.73;;;;;;;;;;5114244;28;20807;-69
2022/05/26 02:21:00;;;;;;;4.70;3.40;;;;;;;;;;5114436;28;20951;-69
2022/05/26 02:23:30;;;;;;;3.67;3.30;;;;;;;;;;5113329;28;20838;-69
2022/05/26 02:25:57;;;;;;;5.90;3.17;;;;;;;;;;5113934;28;20449;-69
2022/05/26 02:28:24;;;;;;;3.57;3.00;;;;;;;;;;5113788;28;20519;-69
2022/05/26 02:30:51;;;;;;;7.00;3.13;;;;;;;;;;5113234;28;20560;-69
2022/05/26 02:33:18;;;;;;;3.73;3.20;;;;;;;;;;5113631;28;20476;-69
2022/05/26 02:35:49;;;;;;;9.03;6.90;;;;;;;;;;5113533;28;20818;-69
2022/05/26 02:38:17;;;;;;;6.10;5.17;;;;;;;;;;5113669;28;20452;-69
2022/05/26 02:40:44;;;;;;;3.67;3.37;;;;;;;;;;5113609;28;20473;-69
2022/05/26 02:43:13;;;;;;;4.10;3.47;;;;;;;;;;5113471;28;20965;-69
2022/05/26 02:45:46;;;;;;;6.87;3.93;;;;;;;;;;5113452;28;20456;-69
2022/05/26 02:48:19;;;;;;;4.50;4.10;;;;;;;;;;5113662;28;20454;-69
2022/05/26 02:50:54;;;;;;;5.30;3.70;;;;;;;;;;5113454;28;20470;-69
2022/05/26 02:53:23;;;;;;;5.70;3.33;;;;;;;;;;5113455;28;20489;-69
2022/05/26 02:55:55;;;;;;;8.60;6.53;;;;;;;;;;5113500;28;20957;-69
2022/05/26 02:58:24;;;;;;;5.93;4.00;;;;;;;;;;5113500;28;20457;-69
2022/05/26 03:00:54;;;;;;;7.27;4.03;;;;;;;;;;5113052;28;20473;-69
2022/05/26 03:03:24;;;;;;;4.70;3.67;;;;;;;;;;5113515;28;20446;-69
2022/05/26 03:05:55;;;;;;;4.03;3.63;;;;;;;;;;5113357;28;20821;-69
2022/05/26 03:08:24;;;;;;;5.40;3.87;;;;;;;;;;5113295;28;20824;-68
2022/05/26 03:10:52;;;;;;;4.30;3.90;;;;;;;;;;5113328;28;20479;-69
2022/05/26 03:13:20;;;;;;;5.63;4.17;;;;;;;;;;5113046;28;21006;-69
2022/05/26 03:15:47;;;;;;;7.53;4.20;;;;;;;;;;5113269;28;20818;-69
2022/05/26 03:18:14;;;;;;;4.83;4.10;;;;;;;;;;5113334;28;20449;-69
2022/05/26 03:20:41;;;;;;;7.87;5.67;;;;;;;;;;5113296;28;20917;-69
2022/05/26 03:23:09;;;;;;;5.70;5.03;;;;;;;;;;5113131;28;20441;-69
2022/05/26 03:25:37;;;;;;;4.70;4.30;;;;;;;;;;5112524;28;20468;-69
2022/05/26 03:28:04;;;;;;;5.07;4.57;;;;;;;;;;5113099;28;20816;-69
2022/05/26 03:30:31;;;;;;;6.70;4.40;;;;;;;;;;5113041;28;20469;-69
2022/05/26 03:32:58;;;;;;;4.77;4.27;;;;;;;;;;5112933;28;20445;-69
2022/05/26 03:41:05;;;;;;;4.30;3.90;;;;;;;;;;5113173;28;20567;-69
2022/05/26 03:43:34;;;;;;;6.40;4.27;;;;;;;;;;5116163;28;20456;-69
2022/05/26 03:46:01;;;;;;;3.87;2.93;;;;;;;;;;5117032;27;20453;-69
2022/05/26 03:48:29;;;;;;;5.30;4.00;;;;;;;;;;5116956;28;20437;-69
2022/05/26 03:50:56;;;;;;;3.60;3.30;;;;;;;;;;5116684;28;20472;-69
2022/05/26 03:53:25;;;;;;;4.80;3.60;;;;;;;;;;5116586;28;20481;-69
2022/05/26 03:55:52;;;;;;;3.83;3.10;;;;;;;;;;5116651;27;20506;-69
2022/05/26 03:58:19;;;;;;;7.00;4.83;;;;;;;;;;5116639;27;20950;-69
2022/05/26 04:00:46;;;;;;;4.70;3.67;;;;;;;;;;5116670;28;20472;-69
2022/05/26 04:03:14;;;;;;;4.87;3.20;;;;;;;;;;5116463;28;20446;-69
2022/05/26 04:05:41;;;;;;;10.40;2.97;;;;;;;;;;5116417;28;20510;-69
2022/05/26 04:08:08;;;;;;;3.23;2.40;;;;;;;;;;5116454;28;20934;-68
2022/05/26 04:10:37;;;;;;;2.63;2.43;;;;;;;;;;5116356;28;20476;-68
2022/05/26 04:13:04;;;;;;;3.10;2.40;;;;;;;;;;5116162;28;20446;-71
2022/05/26 04:15:31;;;;;;;3.70;2.27;;;;;;;;;;5116285;28;20456;-71
2022/05/26 04:17:58;;;;;;;2.70;1.73;;;;;;;;;;5116243;27;20445;-72
2022/05/26 04:20:26;;;;;;;3.23;2.23;;;;;;;;;;5116069;28;20465;-72
2022/05/26 04:22:53;;;;;;;2.97;2.10;;;;;;;;;;5116285;28;20445;-72
2022/05/26 04:25:22;;;;;;;2.23;1.90;;;;;;;;;;5115555;28;20457;-72
2022/05/26 04:27:53;;;;;;;4.53;2.03;;;;;;;;;;5116204;28;20496;-72
2022/05/26 04:30:20;;;;;;;7.60;5.00;;;;;;;;;;5116177;28;20967;-72
2022/05/26 04:32:48;;;;;;;3.27;2.10;;;;;;;;;;5116045;28;20450;-72
2022/05/26 04:35:15;;;;;;;2.33;1.83;;;;;;;;;;5115609;27;20485;-72
2022/05/26 04:37:42;;;;;;;7.97;6.23;;;;;;;;;;5115899;28;20445;-72
2022/05/26 04:40:10;;;;;;;3.00;1.93;;;;;;;;;;5115690;28;20508;-72
2022/05/26 04:42:38;;;;;;;2.73;1.90;;;;;;;;;;5115751;28;20466;-72
2022/05/26 04:45:08;;;;;;;2.80;1.80;;;;;;;;;;5115553;27;20442;-72
2022/05/26 04:47:36;;;;;;;3.40;1.90;;;;;;;;;;5115851;28;20935;-71
2022/05/26 04:50:03;;;;;;;2.63;2.10;;;;;;;;;;5115596;28;20838;-72
2022/05/26 04:52:31;;;;;;;4.43;1.80;;;;;;;;;;5115310;28;20454;-72
2022/05/26 04:54:58;;;;;;;3.30;1.80;;;;;;;;;;5115235;28;20576;-72
2022/05/26 04:57:26;;;;;;;1.90;1.43;;;;;;;;;;5115495;28;20456;-72
2022/05/26 04:59:53;;;;;;;1.90;1.60;;;;;;;;;;5115420;28;20523;-72
2022/05/26 05:02:22;;;;;;;3.90;1.77;;;;;;;;;;5115415;28;20454;-72
2022/05/26 05:04:50;;;;;;;2.43;1.63;;;;;;;;;;5115272;28;20463;-72
2022/05/26 05:07:18;;;;;;;3.77;1.80;;;;;;;;;;5115385;28;20813;-72
2022/05/26 05:09:45;;;;;;;3.43;2.20;;;;;;;;;;5115440;27;20478;-72
2022/05/26 05:12:13;;;;;;;2.53;2.20;;;;;;;;;;5115200;28;20453;-72
2022/05/26 05:14:42;;;;;;;2.40;1.73;;;;;;;;;;5114983;28;20485;-72
2022/05/26 05:17:09;;;;;;;1.90;1.63;;;;;;;;;;5114986;28;20489;-72
2022/05/26 05:19:38;;;;;;;1.70;1.40;;;;;;;;;;5115147;28;20470;-71
2022/05/26 05:22:07;;;;;;;2.53;1.77;;;;;;;;;;5114990;28;20446;-71
2022/05/26 05:24:36;;;;;;;2.50;1.80;;;;;;;;;;5114782;28;20453;-71
2022/05/26 05:27:05;;;;;;;2.93;2.07;;;;;;;;;;5114998;28;20457;-71
2022/05/26 05:29:33;;;;;;;2.80;2.00;;;;;;;;;;5114839;28;20457;-71
2022/05/26 05:32:03;;;;;;;5.17;1.87;;;;;;;;;;5114941;28;20867;-71
2022/05/26 05:34:34;;;;;;;2.00;1.80;;;;;;;;;;5114427;28;20489;-71
2022/05/26 05:37:03;;;;;;;4.43;2.00;;;;;;;;;;5114714;28;20981;-71
2022/05/26 05:39:30;;;;;;;2.43;1.80;;;;;;;;;;5114571;27;20457;-71
2022/05/26 05:41:57;;;;;;;2.70;2.30;;;;;;;;;;5114692;28;20946;-71
2022/05/26 05:44:24;;;;;;;5.13;2.63;;;;;;;;;;5114514;28;20552;-71
2022/05/26 05:46:54;;;;;;;3.27;2.50;;;;;;;;;;5107014;28;20973;-71
2022/05/26 05:49:22;;;;;;;2.37;1.70;;;;;;;;;;5112359;28;20906;-71
2022/05/26 05:51:50;;;;;;;2.20;2.00;;;;;;;;;;5113227;28;20453;-71
2022/05/26 05:54:18;;;;;;;2.37;1.90;;;;;;;;;;5112340;28;20497;-71
2022/05/26 05:56:46;;;;;;;3.43;1.83;;;;;;;;;;5113077;28;20449;-71
2022/05/26 05:59:13;;;;;;;3.10;2.37;;;;;;;;;;5113017;28;20457;-71
2022/05/26 06:01:40;;;;;;;2.83;2.13;;;;;;;;;;5112789;28;20441;-71
2022/05/26 06:04:07;;;;;;;3.50;1.90;;;;;;;;;;5111961;28;20943;-71
2022/05/26 06:06:38;;;;;;;1.90;1.60;;;;;;;;;;5112448;28;20453;-71
2022/05/26 06:09:06;;;;;;;2.40;1.70;;;;;;;;;;5112694;28;21139;-72
2022/05/26 06:11:34;;;;;;;2.90;1.67;;;;;;;;;;5111656;28;21017;-72
2022/05/26 06:14:02;;;;;;;3.27;2.33;;;;;;;;;;5112495;28;20485;-72
2022/05/26 06:16:29;;;;;;;2.70;1.93;;;;;;;;;;5112446;28;20458;-71
2022/05/26 06:18:57;;;;;;;5.20;1.80;;;;;;;;;;5112478;28;20967;-72
2022/05/26 06:21:24;;;;;;;1.97;1.60;;;;;;;;;;5112505;28;20482;-72
2022/05/26 06:23:53;;;;;;;2.57;1.50;;;;;;;;;;5112379;28;20450;-72
2022/05/26 06:26:21;;;;;;;2.60;1.83;;;;;;;;;;5112387;28;20468;-72
2022/05/26 06:31:34;;;;;;;2.47;1.80;;;;;;;;;;5111884;28;20620;-72
2022/05/26 06:39:30;;;;;;;3.10;1.50;;;;;;;;;;5110958;28;20465;-72
2022/05/26 06:42:06;;;;;;;4.40;1.60;;;;;;;;;;5111583;28;20970;-71
2022/05/26 06:44:37;;;;;;;8.77;1.60;;;;;;;;;;5111983;28;20445;-72
2022/05/26 06:47:05;;;;;;;3.30;1.40;;;;;;;;;;5111798;28;20485;-72
2022/05/26 06:49:34;;;;;;;2.30;1.50;;;;;;;;;;5112328;28;20442;-72
2022/05/26 06:52:02;;;;;;;1.80;1.60;;;;;;;;;;5112001;28;20446;-72
2022/05/26 06:54:31;;;;;;;2.33;1.60;;;;;;;;;;5111635;28;20486;-72
2022/05/26 06:56:58;;;;;;;1.50;1.20;;;;;;;;;;5112143;28;20506;-73
2022/05/26 06:59:25;;;;;;;4.83;1.37;;;;;;;;;;5112435;28;20955;-71
2022/05/26 07:01:54;;;;;;;1.60;1.17;;;;;;;;;;5112563;28;20839;-72
2022/05/26 07:04:21;;;;;;;2.43;1.43;;;;;;;;;;5111850;28;21228;-72
2022/05/26 07:06:49;;;;;;;2.03;1.57;;;;;;;;;;5111926;28;20862;-73
2022/05/26 07:09:16;;;;;;;1.80;1.40;;;;;;;;;;5111933;28;20535;-72
2022/05/26 07:11:43;;;;;;;2.75;1.55;;;;;;;;;;5111832;28;20467;-71
2022/05/26 07:14:10;;;;;;;2.13;1.50;;;;;;;;;;5111636;28;20211;-72
2022/05/26 07:16:38;;;;;;;2.33;1.50;;;;;;;;;;5114075;28;20441;-73
2022/05/26 07:19:06;;;;;;;3.67;1.55;;;;;;;;;;5115076;27;20452;-71
2022/05/26 07:21:34;;;;;;;1.77;1.30;;;;;;;;;;5115696;28;20444;-72
2022/05/26 07:24:01;;;;;;;4.53;1.40;;;;;;;;;;5115688;28;20438;-71
2022/05/26 07:26:32;;;;;;;1.97;1.20;;;;;;;;;;5116311;28;21181;-72
2022/05/26 07:28:59;;;;;;;1.70;1.37;;;;;;;;;;5115895;28;20833;-72
2022/05/26 07:31:26;;;;;;;3.10;1.60;;;;;;;;;;5115693;28;20484;-72
2022/05/26 07:33:53;;;;;;;3.93;1.77;;;;;;;;;;5115605;28;20446;-72
2022/05/26 07:41:56;;;;;;;5.03;2.23;;;;;;;;;;5115571;28;20933;-72
2022/05/26 07:44:23;;;;;;;1.77;1.37;;;;;;;;;;5115141;28;20461;-72
2022/05/26 07:46:50;;;;;;;2.70;1.70;;;;;;;;;;5115507;27;20442;-71
2022/05/26 07:49:17;;;;;;;2.20;1.60;;;;;;;;;;5115250;28;20445;-72
2022/05/26 07:51:46;;;;;;;2.87;1.20;;;;;;;;;;5115973;28;20453;-72
2022/05/26 07:54:13;;;;;;;2.10;1.30;;;;;;;;;;5116337;28;20449;-72
2022/05/26 07:56:40;;;;;;;2.37;1.70;;;;;;;;;;5116359;28;20456;-72
2022/05/26 07:59:08;;;;;;;2.30;1.10;;;;;;;;;;5116553;28;20820;-72
2022/05/26 08:01:36;;;;;;;1.60;1.10;;;;;;;;;;5116530;28;20892;-72
2022/05/26 08:04:05;;;;;;;3.80;1.57;;;;;;;;;;5116283;28;20946;-72
2022/05/26 08:06:32;;;;;;;2.13;1.77;;;;;;;;;;5116464;28;20965;-72
2022/05/26 08:09:01;;;;;;;1.70;1.40;;;;;;;;;;5116450;28;20445;-72
2022/05/26 08:11:28;;;;;;;2.20;1.70;;;;;;;;;;5116149;28;20496;-72
2022/05/26 08:13:55;;;;;;;1.63;1.33;;;;;;;;;;5116236;28;20456;-71
2022/05/26 08:16:22;;;;;;;1.60;1.10;;;;;;;;;;5116288;28;20489;-72
2022/05/26 08:18:49;;;;;;;2.13;0.90;;;;;;;;;;5116274;28;20955;-72
2022/05/26 08:21:18;;;;;;;1.63;1.20;;;;;;;;;;5116143;28;20469;-72
2022/05/26 08:23:45;;;;;;;4.10;2.00;;;;;;;;;;5115436;28;20522;-71
2022/05/26 08:26:14;;;;;;;2.30;1.60;;;;;;;;;;5116088;28;20453;-72
2022/05/26 08:28:42;;;;;;;3.73;2.20;;;;;;;;;;5115171;28;20456;-72
2022/05/26 08:31:13;;;;;;;2.20;1.50;;;;;;;;;;5115997;27;20481;-72
2022/05/26 08:33:40;;;;;;;2.67;1.00;;;;;;;;;;5115992;28;20511;-72
2022/05/26 08:36:08;;;;;;;1.90;1.30;;;;;;;;;;5115843;28;20477;-72
2022/05/26 08:38:36;;;;;;;2.40;1.20;;;;;;;;;;5115921;27;20449;-72
2022/05/26 08:41:04;;;;;;;1.93;1.20;;;;;;;;;;5115959;28;20531;-72
2022/05/26 08:43:36;;;;;;;2.17;1.40;;;;;;;;;;5115742;28;20465;-71
2022/05/26 08:46:07;;;;;;;2.33;1.20;;;;;;;;;;5115659;28;20456;-72
2022/05/26 08:48:38;;;;;;;2.17;1.67;;;;;;;;;;5115892;27;20510;-72
2022/05/26 08:51:07;;;;;;;4.90;1.57;;;;;;;;;;5115480;28;20510;-72
2022/05/26 08:53:35;;;;;;;2.13;1.60;;;;;;;;;;5115707;27;20454;-72
2022/05/26 08:56:03;;;;;;;2.60;1.37;;;;;;;;;;5115458;28;20866;-72
2022/05/26 08:58:36;;;;;;;2.93;1.33;;;;;;;;;;5115461;27;20526;-72
2022/05/26 09:01:04;;;;;;;4.03;1.40;;;;;;;;;;5115392;28;20495;-72
2022/05/26 09:03:33;;;;;;;4.47;1.50;;;;;;;;;;5115300;28;20446;-72
2022/05/26 09:06:03;;;;;;;2.67;1.80;;;;;;;;;;5115429;28;20445;-72
2022/05/26 09:14:03;;;;;;;1.50;1.10;;;;;;;;;;5115028;28;21033;-72
2022/05/26 09:16:32;;;;;;;2.03;1.40;;;;;;;;;;5115152;28;20485;-72
2022/05/26 09:19:09;;;;;;;3.67;1.47;;;;;;;;;;5115245;28;20454;-72
2022/05/26 09:21:37;;;;;;;1.87;1.50;;;;;;;;;;5115094;28;20543;-72
2022/05/26 09:24:17;;;;;;;3.17;1.30;;;;;;;;;;5114364;28;20507;-72
2022/05/26 09:26:46;;;;;;;4.80;1.47;;;;;;;;;;5115139;28;20449;-72
2022/05/26 09:29:15;;;;;;;3.23;1.73;;;;;;;;;;5114853;28;20453;-72
2022/05/26 09:31:46;;;;;;;2.17;1.10;;;;;;;;;;5114970;28;20450;-72
2022/05/26 09:34:17;;;;;;;1.53;1.10;;;;;;;;;;5114726;28;20457;-72
2022/05/26 09:36:46;;;;;;;1.67;1.10;;;;;;;;;;5114747;28;20496;-72
2022/05/26 09:39:13;;;;;;;3.13;1.03;;;;;;;;;;5114937;28;20479;-72
2022/05/26 09:41:42;;;;;;;2.23;1.40;;;;;;;;;;5114583;28;20445;-72
2022/05/26 09:44:23;;;;;;;4.20;1.40;;;;;;;;;;5114640;28;20493;-72
2022/05/26 09:46:51;;;;;;;1.87;1.63;;;;;;;;;;5114670;28;20448;-72
2022/05/26 09:49:23;;;;;;;3.40;1.70;;;;;;;;;;5114277;28;20546;-72
2022/05/26 09:51:50;;;;;;;3.17;1.20;;;;;;;;;;5114636;28;20801;-72
2022/05/26 09:54:22;;;;;;;2.10;1.27;;;;;;;;;;5114298;28;20456;-72
2022/05/26 09:56:49;;;;;;;2.00;1.60;;;;;;;;;;5114721;28;20489;-72
2022/05/26 09:59:28;;;;;;;2.37;1.57;;;;;;;;;;5114234;28;20465;-72
2022/05/26 10:01:59;;;;;;;1.63;1.50;;;;;;;;;;5114487;28;20964;-72
2022/05/26 10:04:29;;;;;;;2.30;1.37;;;;;;;;;;5114133;28;20454;-72
2022/05/26 10:06:59;;;;;;;4.37;1.13;;;;;;;;;;5114278;28;20445;-72
2022/05/26 10:09:32;;;;;;;2.00;1.30;;;;;;;;;;5114228;28;20445;-72
2022/05/26 10:12:04;;;;;;;1.83;1.10;;;;;;;;;;5114328;28;20442;-72
2022/05/26 10:14:44;;;;;;;1.43;1.10;;;;;;;;;;5113968;28;20548;-72
2022/05/26 10:17:16;;;;;;;2.03;1.20;;;;;;;;;;5114001;28;20481;-72
2022/05/26 10:20:03;;;;;;;1.50;1.00;;;;;;;;;;5114029;28;20474;-72
2022/05/26 10:22:35;;;;;;;1.80;1.00;;;;;;;;;;5114012;28;20946;-72
2022/05/26 10:25:22;;;;;;;1.60;1.43;;;;;;;;;;5113252;28;20458;-72
2022/05/26 10:27:59;;;;;;;3.03;1.17;;;;;;;;;;5113893;28;20449;-72
2022/05/26 10:30:33;;;;;;;2.10;1.30;;;;;;;;;;5113706;28;20469;-72
2022/05/26 10:33:21;;;;;;;2.07;1.47;;;;;;;;;;5110008;28;20450;-72
2022/05/26 10:35:53;;;;;;;2.50;1.40;;;;;;;;;;5102702;28;20485;-72
2022/05/26 10:38:25;;;;;;;3.30;1.27;;;;;;;;;;5111803;28;20455;-72
2022/05/26 10:40:55;;;;;;;2.60;1.50;;;;;;;;;;5112228;28;20480;-72
2022/05/26 10:43:24;;;;;;;3.00;1.40;;;;;;;;;;5111812;28;20457;-72
2022/05/26 10:45:52;;;;;;;4.40;1.67;;;;;;;;;;5112014;28;20958;-72
2022/05/26 10:48:24;;;;;;;1.90;1.47;;;;;;;;;;5111995;28;20449;-72
2022/05/26 10:50:53;;;;;;;3.90;1.40;;;;;;;;;;5111401;27;20526;-73
2022/05/26 10:53:25;;;;;;;1.70;1.43;;;;;;;;;;5112024;28;20461;-72
2022/05/26 10:55:55;;;;;;;2.70;1.23;;;;;;;;;;5111806;28;20487;-72
2022/05/26 10:58:26;;;;;;;2.57;1.40;;;;;;;;;;5111893;28;20450;-72
2022/05/26 11:00:57;;;;;;;1.40;1.07;;;;;;;;;;5112108;28;20465;-72
2022/05/26 11:03:25;;;;;;;1.93;1.20;;;;;;;;;;5112198;28;20457;-73
2022/05/26 11:05:54;;;;;;;4.17;1.50;;;;;;;;;;5112005;28;20525;-72
2022/05/26 11:08:31;;;;;;;5.23;1.43;;;;;;;;;;5111775;28;20453;-72
2022/05/26 11:11:01;;;;;;;1.93;1.30;;;;;;;;;;5111725;28;20469;-73
2022/05/26 11:13:35;;;;;;;4.10;1.10;;;;;;;;;;5111832;28;20454;-72
2022/05/26 11:18:53;;;;;;;2.00;1.40;;;;;;;;;;5111782;28;20422;-73
2022/05/26 11:21:21;;;;;;;2.80;1.30;;;;;;;;;;5111534;28;20484;-72
2022/05/26 11:23:48;;;;;;;2.37;1.23;;;;;;;;;;5111564;28;20518;-72
2022/05/26 11:26:20;;;;;;;2.47;1.13;;;;;;;;;;5111542;28;20449;-73
2022/05/26 11:28:50;;;;;;;1.90;1.30;;;;;;;;;;5113259;28;20445;-72
2022/05/26 11:37:03;;;;;;;1.97;1.33;;;;;;;;;;5086670;28;20474;-72
2022/05/26 11:39:34;;;;;;;3.57;1.20;;;;;;;;;;5113240;28;20671;-72
2022/05/26 11:42:03;;;;;;;1.70;1.07;;;;;;;;;;5112845;28;20966;-73
2022/05/26 11:44:31;;;;;;;1.60;1.23;;;;;;;;;;5112982;28;20456;-73
2022/05/26 11:47:13;;;;;;;1.50;1.20;;;;;;;;;;5113082;28;20441;-73
2022/05/26 11:49:59;;;;;;;2.07;1.40;;;;;;;;;;5113096;28;20851;-72
2022/05/26 11:52:28;;;;;;;1.83;1.20;;;;;;;;;;5112851;28;20488;-72
2022/05/26 11:55:08;;;;;;;1.47;1.10;;;;;;;;;;5112743;28;20446;-72
2022/05/26 11:57:36;;;;;;;2.43;1.33;;;;;;;;;;5113005;28;20842;-72
2022/05/26 12:00:18;;;;;;;2.43;1.20;;;;;;;;;;5112847;28;20476;-73
2022/05/26 12:02:46;;;;;;;3.70;1.40;;;;;;;;;;5113543;28;20450;-73
2022/05/26 12:05:32;;;;;;;2.47;1.50;;;;;;;;;;5116343;28;20449;-72
2022/05/26 12:08:03;;;;;;;1.73;1.30;;;;;;;;;;5116609;28;20450;-72
2022/05/26 12:10:38;;;;;;;4.07;1.33;;;;;;;;;;5116530;28;20474;-72
2022/05/26 12:13:28;;;;;;;1.70;1.30;;;;;;;;;;5116440;28;20437;-72
2022/05/26 12:16:05;;;;;;;4.10;1.40;;;;;;;;;;5116565;27;20538;-72
2022/05/26 12:18:38;;;;;;;3.67;1.97;;;;;;;;;;5116556;28;20441;-73
2022/05/26 12:21:12;;;;;;;1.80;1.43;;;;;;;;;;5116282;28;20469;-72
2022/05/26 12:23:42;;;;;;;2.87;1.20;;;;;;;;;;5116204;27;20441;-71
2022/05/26 12:26:26;;;;;;;2.70;1.60;;;;;;;;;;5116285;28;20528;-72
2022/05/26 12:28:53;;;;;;;1.80;1.20;;;;;;;;;;5116374;28;20446;-72
2022/05/26 12:31:20;;;;;;;3.67;1.20;;;;;;;;;;5115988;28;20473;-72
2022/05/26 12:34:14;;;;;;;3.00;1.40;;;;;;;;;;5115952;28;20496;-72
2022/05/26 12:37:06;;;;;;;1.40;1.10;;;;;;;;;;5116035;28;20485;-72
2022/05/26 12:39:51;;;;;;;1.50;1.20;;;;;;;;;;5116053;28;20969;-73
2022/05/26 12:42:24;;;;;;;2.77;1.20;;;;;;;;;;5115764;28;20457;-72
2022/05/26 12:45:00;;;;;;;2.27;1.50;;;;;;;;;;5115674;28;20453;-72
2022/05/26 12:47:38;;;;;;;2.97;1.37;;;;;;;;;;5115923;28;20815;-72
2022/05/26 12:50:08;;;;;;;1.70;1.20;;;;;;;;;;5115703;28;20849;-73
2022/05/26 12:52:36;;;;;;;2.23;1.40;;;;;;;;;;5115775;28;20947;-73
2022/05/26 12:55:09;;;;;;;2.57;1.20;;;;;;;;;;5115537;28;20536;-73
2022/05/26 12:57:38;;;;;;;2.23;1.43;;;;;;;;;;5115622;28;20854;-73
2022/05/26 13:00:23;;;;;;;3.10;1.60;;;;;;;;;;5115402;28;20474;-72
2022/05/26 13:02:51;;;;;;;3.43;1.20;;;;;;;;;;5115588;28;20446;-72
2022/05/26 13:05:18;;;;;;;1.90;1.70;;;;;;;;;;5115301;28;20935;-73
2022/05/26 13:07:47;;;;;;;3.47;1.40;;;;;;;;;;5115782;28;20472;-72
2022/05/26 13:10:15;;;;;;;1.70;1.30;;;;;;;;;;5115382;27;20465;-72
2022/05/26 13:12:47;;;;;;;2.53;1.40;;;;;;;;;;5115532;28;20454;-72
2022/05/26 13:15:21;;;;;;;1.60;1.10;;;;;;;;;;5114946;28;20870;-73
2022/05/26 13:17:48;;;;;;;3.50;1.10;;;;;;;;;;5115456;28;20493;-73
2022/05/26 13:20:23;;;;;;;4.17;1.40;;;;;;;;;;5115139;28;20474;-73
2022/05/26 13:22:50;;;;;;;4.00;2.00;;;;;;;;;;5115117;28;20456;-73
2022/05/26 13:25:24;;;;;;;3.40;1.27;;;;;;;;;;5114402;28;20457;-73
2022/05/26 13:27:54;;;;;;;1.67;1.30;;;;;;;;;;5115022;28;20454;-73
2022/05/26 13:33:09;;;;;;;3.20;1.30;;;;;;;;;;5114951;28;20479;-73
2022/05/26 13:35:40;;;;;;;2.10;1.30;;;;;;;;;;5114921;28;20963;-73
2022/05/26 13:38:19;;;;;;;2.97;1.13;;;;;;;;;;5114883;28;20904;-73
2022/05/26 13:40:46;;;;;;;1.43;1.13;;;;;;;;;;5114826;28;20986;-73
2022/05/26 13:43:16;;;;;;;4.17;2.07;;;;;;;;;;5114586;27;20476;-72
2022/05/26 13:45:44;;;;;;;1.40;1.10;;;;;;;;;;5114459;28;20454;-73
2022/05/26 13:48:29;;;;;;;2.40;1.27;;;;;;;;;;5114529;28;20453;-73
2022/05/26 13:50:59;;;;;;;1.67;1.20;;;;;;;;;;5114482;28;20887;-72
2022/05/26 13:53:26;;;;;;;1.90;1.30;;;;;;;;;;5115338;28;20462;-72
2022/05/26 13:55:56;;;;;;;3.23;1.20;;;;;;;;;;5114867;28;20446;-72
2022/05/26 13:58:27;;;;;;;1.73;1.17;;;;;;;;;;5115132;28;20531;-72
2022/05/26 14:00:59;;;;;;;2.90;1.23;;;;;;;;;;5114295;27;20485;-72
2022/05/26 14:03:28;;;;;;;1.40;1.10;;;;;;;;;;5112484;28;20842;-73
2022/05/26 14:05:59;;;;;;;2.27;1.30;;;;;;;;;;5113197;28;20457;-72
2022/05/26 14:08:27;;;;;;;2.20;1.40;;;;;;;;;;5113570;28;20446;-74
2022/05/26 14:10:55;;;;;;;3.10;1.30;;;;;;;;;;5113620;28;20836;-72
2022/05/26 14:13:29;;;;;;;1.60;1.23;;;;;;;;;;5113212;28;20472;-74
2022/05/26 14:15:57;;;;;;;1.40;1.00;;;;;;;;;;5113447;28;20495;-73
2022/05/26 14:18:26;;;;;;;2.93;1.20;;;;;;;;;;5113972;28;20492;-72
2022/05/26 14:20:57;;;;;;;2.10;1.40;;;;;;;;;;5113963;28;20481;-72
2022/05/26 14:23:25;;;;;;;1.80;1.30;;;;;;;;;;5113896;28;20449;-73
2022/05/26 14:26:04;;;;;;;1.83;1.30;;;;;;;;;;5113114;28;20450;-71
2022/05/26 14:28:34;;;;;;;2.70;1.10;;;;;;;;;;5114175;28;20941;-72
2022/05/26 14:31:03;;;;;;;5.63;1.17;;;;;;;;;;5113597;28;20474;-73
2022/05/26 14:33:32;;;;;;;2.03;1.10;;;;;;;;;;5113669;28;20481;-71
2022/05/26 14:36:00;;;;;;;2.73;1.30;;;;;;;;;;5113606;27;20502;-71
2022/05/26 14:38:27;;;;;;;3.77;1.40;;;;;;;;;;5113382;28;20477;-70
2022/05/26 14:40:54;;;;;;;1.60;1.10;;;;;;;;;;5113313;28;20500;-71
2022/05/26 14:43:22;;;;;;;1.60;1.20;;;;;;;;;;5113201;28;20461;-70
2022/05/26 14:45:53;;;;;;;1.93;1.40;;;;;;;;;;5113236;28;20532;-70
2022/05/26 14:48:20;;;;;;;2.47;1.40;;;;;;;;;;5113292;28;20449;-69
2022/05/26 14:50:48;;;;;;;1.70;1.20;;;;;;;;;;5113224;28;20469;-70
2022/05/26 14:53:15;;;;;;;1.57;1.17;;;;;;;;;;5113152;28;20506;-70
2022/05/26 14:55:42;;;;;;;2.37;1.00;;;;;;;;;;5113154;28;20567;-71
2022/05/26 14:58:13;;;;;;;1.50;1.10;;;;;;;;;;5113056;28;20504;-70
2022/05/26 15:00:43;;;;;;;2.20;1.80;;;;;;;;;;5113397;28;20477;-70
2022/05/26 15:03:12;;;;;;;2.20;1.80;;;;;;;;;;5112989;28;21040;-70
2022/05/26 15:05:40;;;;;;;2.30;1.40;;;;;;;;;;5112871;28;20449;-70
2022/05/26 15:08:14;;;;;;;2.43;1.33;;;;;;;;;;5113015;28;20448;-71
2022/05/26 15:10:42;;;;;;;2.43;1.43;;;;;;;;;;5113228;28;20990;-71
2022/05/26 15:13:09;;;;;;;1.77;1.20;;;;;;;;;;5113042;28;20450;-71
2022/05/26 15:15:36;;;;;;;8.30;1.40;;;;;;;;;;5113013;28;20468;-71
2022/05/26 15:18:03;;;;;;;3.07;1.33;;;;;;;;;;5112917;28;20492;-72
2022/05/26 15:20:31;;;;;;;6.53;1.37;;;;;;;;;;5112898;28;21000;-72
2022/05/26 15:22:59;;;;;;;4.10;1.43;;;;;;;;;;5112933;28;20452;-71
2022/05/26 15:25:26;;;;;;;2.93;1.20;;;;;;;;;;5111835;27;20466;-71
2022/05/26 15:27:57;;;;;;;2.73;1.30;;;;;;;;;;5113083;28;20457;-72
2022/05/26 15:30:25;;;;;;;1.70;1.40;;;;;;;;;;5112903;28;20470;-72
2022/05/26 15:32:52;;;;;;;2.30;1.20;;;;;;;;;;5113020;28;20460;-72
2022/05/26 15:35:20;;;;;;;2.93;1.47;;;;;;;;;;5112611;28;20461;-72